createdAt,value
2023-03-16T00:00:56.642Z,73.49
2023-03-16T00:03:24.578Z,73.87
2023-03-16T00:05:54.138Z,74.22
2023-03-16T00:08:21.950Z,74.55
2023-03-16T00:10:52.418Z,74.96
2023-03-16T00:13:23.674Z,74.95
2023-03-16T00:15:55.169Z,74.80
2023-03-16T00:18:28.307Z,74.92
2023-03-16T00:21:02.480Z,74.68
2023-03-16T00:23:32.078Z,74.58
2023-03-16T00:26:02.498Z,74.48
2023-03-16T00:28:34.167Z,74.51
2023-03-16T00:31:07.400Z,74.53
2023-03-16T00:33:35.207Z,74.57
2023-03-16T00:36:08.786Z,74.59
2023-03-16T00:38:40.082Z,74.56
2023-03-16T00:41:09.478Z,74.64
2023-03-16T00:43:39.662Z,74.70
2023-03-16T00:46:11.319Z,74.73
2023-03-16T00:48:42.277Z,74.89
2023-03-16T00:51:14.972Z,75.10
2023-03-16T00:53:45.179Z,74.87
2023-03-16T00:56:13.497Z,75.14
2023-03-16T00:58:42.741Z,75.02
2023-03-16T01:01:18.963Z,75.22
2023-03-16T01:03:47.070Z,74.96
2023-03-16T01:06:17.362Z,75.11
2023-03-16T01:08:45.216Z,75.18
2023-03-16T01:11:20.489Z,75.19
2023-03-16T01:13:52.335Z,75.17
2023-03-16T01:16:22.107Z,75.18
2023-03-16T01:18:52.234Z,75.15
2023-03-16T01:21:21.206Z,75.00
2023-03-16T01:23:50.392Z,75.19
2023-03-16T01:26:20.088Z,75.14
2023-03-16T01:28:48.970Z,75.24
2023-03-16T01:31:16.678Z,74.95
2023-03-16T01:33:44.658Z,75.18
2023-03-16T01:36:17.590Z,75.09
2023-03-16T01:38:47.650Z,75.07
2023-03-16T01:41:16.072Z,75.05
2023-03-16T01:43:43.896Z,75.07
2023-03-16T01:46:25.363Z,75.01
2023-03-16T01:49:29.205Z,75.30
2023-03-16T01:52:02.477Z,75.16
2023-03-16T01:54:46.349Z,75.23
2023-03-16T01:57:24.064Z,75.26
2023-03-16T02:00:22.943Z,75.48
2023-03-16T02:03:00.326Z,75.50
2023-03-16T02:05:47.294Z,75.42
2023-03-16T02:08:17.930Z,75.54
2023-03-16T02:10:46.609Z,75.83
2023-03-16T02:13:15.029Z,75.69
2023-03-16T02:15:43.146Z,75.97
2023-03-16T02:18:11.714Z,76.44
2023-03-16T02:21:01.778Z,76.24
2023-03-16T02:23:32.201Z,76.40
2023-03-16T02:26:26.854Z,76.72
2023-03-16T02:29:31.348Z,76.41
2023-03-16T02:32:02.436Z,76.32
2023-03-16T02:34:30.438Z,76.69
2023-03-16T02:36:59.699Z,76.46
2023-03-16T02:39:28.038Z,76.26
2023-03-16T02:41:55.915Z,76.11
2023-03-16T02:44:33.145Z,76.22
2023-03-16T02:47:09.390Z,76.09
2023-03-16T02:49:40.977Z,76.10
2023-03-16T02:52:09.681Z,76.01
2023-03-16T02:54:38.500Z,75.75
2023-03-16T02:57:06.618Z,75.56
2023-03-16T02:59:35.061Z,73.81
2023-03-16T03:02:03.536Z,71.44
2023-03-16T03:04:32.456Z,69.11
2023-03-16T03:07:02.284Z,66.68
2023-03-16T03:09:32.707Z,67.30
2023-03-16T03:12:00.701Z,65.38
2023-03-16T03:14:28.427Z,64.87
2023-03-16T03:16:56.236Z,64.53
2023-03-16T03:19:24.062Z,65.26
2023-03-16T03:21:53.871Z,63.33
2023-03-16T03:24:21.755Z,63.33
2023-03-16T03:26:49.652Z,63.36
2023-03-16T03:29:19.817Z,62.92
2023-03-16T03:31:47.678Z,63.24
2023-03-16T03:34:16.132Z,63.34
2023-03-16T03:36:43.825Z,63.50
2023-03-16T03:39:18.872Z,63.34
2023-03-16T03:41:54.856Z,63.27
2023-03-16T03:44:24.723Z,63.56
2023-03-16T03:46:53.031Z,63.72
2023-03-16T03:49:21.254Z,63.98
2023-03-16T03:51:49.609Z,64.06
2023-03-16T03:54:19.422Z,63.95
2023-03-16T03:56:54.947Z,64.11
2023-03-16T03:59:22.776Z,64.40
2023-03-16T04:02:10.721Z,64.56
2023-03-16T04:04:41.975Z,65.08
2023-03-16T04:07:11.101Z,65.39
2023-03-16T04:09:39.515Z,65.40
2023-03-16T04:12:08.070Z,65.77
2023-03-16T04:14:35.704Z,65.94
2023-03-16T04:17:07.670Z,65.77
2023-03-16T04:19:36.843Z,66.17
2023-03-16T04:22:06.095Z,66.21
2023-03-16T04:24:33.882Z,66.51
2023-03-16T04:27:03.376Z,66.32
2023-03-16T04:29:31.499Z,66.25
2023-03-16T04:31:59.672Z,66.12
2023-03-16T04:34:27.914Z,66.07
2023-03-16T04:36:57.510Z,66.21
2023-03-16T04:39:25.190Z,65.55
2023-03-16T04:41:54.981Z,65.81
2023-03-16T04:44:25.379Z,65.18
2023-03-16T04:46:59.015Z,65.12
2023-03-16T04:49:28.525Z,64.60
2023-03-16T04:51:57.343Z,64.68
2023-03-16T04:54:25.640Z,64.96
2023-03-16T04:56:53.586Z,64.89
2023-03-16T04:59:29.767Z,64.62
2023-03-16T05:02:03.624Z,64.46
2023-03-16T05:04:31.740Z,64.25
2023-03-16T05:06:59.579Z,64.18
2023-03-16T05:09:29.322Z,64.05
2023-03-16T05:11:57.162Z,63.90
2023-03-16T05:14:24.969Z,63.73
2023-03-16T05:16:57.220Z,63.47
2023-03-16T05:19:25.038Z,63.43
2023-03-16T05:21:52.837Z,63.45
2023-03-16T05:24:20.732Z,63.25
2023-03-16T05:26:48.661Z,63.55
2023-03-16T05:29:16.764Z,63.43
2023-03-16T05:31:49.153Z,63.34
2023-03-16T05:34:18.411Z,63.09
2023-03-16T05:36:47.752Z,62.95
2023-03-16T05:39:16.536Z,63.04
2023-03-16T05:41:46.266Z,63.01
2023-03-16T05:44:15.946Z,62.92
2023-03-16T05:46:50.635Z,62.76
2023-03-16T05:49:18.650Z,62.68
2023-03-16T05:51:46.616Z,62.30
2023-03-16T05:54:14.378Z,62.54
2023-03-16T05:56:46.114Z,62.69
2023-03-16T05:59:16.935Z,62.52
2023-03-16T06:01:46.193Z,62.01
2023-03-16T06:04:14.034Z,61.90
2023-03-16T06:06:41.802Z,62.26
2023-03-16T06:09:14.586Z,62.11
2023-03-16T06:11:43.566Z,62.24
2023-03-16T06:14:12.111Z,62.06
2023-03-16T06:16:40.337Z,62.18
2023-03-16T06:19:08.774Z,62.27
2023-03-16T06:21:36.638Z,62.25
2023-03-16T06:24:08.329Z,62.31
2023-03-16T06:26:37.160Z,62.26
2023-03-16T06:29:06.657Z,62.89
2023-03-16T06:31:36.014Z,63.45
2023-03-16T06:34:07.907Z,63.97
2023-03-16T06:36:37.481Z,64.36
2023-03-16T06:39:06.574Z,65.23
2023-03-16T06:41:35.984Z,65.68
2023-03-16T06:44:05.688Z,66.20
2023-03-16T06:46:34.284Z,66.58
2023-03-16T06:49:03.972Z,67.08
2023-03-16T06:51:31.777Z,67.56
2023-03-16T06:53:59.256Z,67.26
2023-03-16T06:56:27.467Z,67.35
2023-03-16T06:58:57.638Z,67.78
2023-03-16T07:01:25.282Z,67.59
2023-03-16T07:03:56.300Z,67.84
2023-03-16T07:06:47.039Z,67.93
2023-03-16T07:09:35.282Z,67.30
2023-03-16T07:12:03.655Z,67.48
2023-03-16T07:14:31.993Z,67.69
2023-03-16T07:17:01.162Z,67.64
2023-03-16T07:19:29.545Z,67.65
2023-03-16T07:21:59.285Z,67.73
2023-03-16T07:24:27.813Z,67.81
2023-03-16T07:26:55.432Z,67.64
2023-03-16T07:29:28.439Z,67.59
2023-03-16T07:31:56.573Z,67.63
2023-03-16T07:34:26.357Z,67.63
2023-03-16T07:36:56.010Z,67.61
2023-03-16T07:39:25.057Z,67.66
2023-03-16T07:41:54.848Z,67.42
2023-03-16T07:44:24.305Z,67.27
2023-03-16T07:46:54.074Z,66.89
2023-03-16T07:49:23.830Z,66.30
2023-03-16T07:51:53.499Z,66.29
2023-03-16T07:54:23.917Z,65.28
2023-03-16T07:56:52.026Z,64.47
2023-03-16T07:59:25.078Z,64.01
2023-03-16T08:01:52.968Z,64.51
2023-03-16T08:04:21.744Z,64.45
2023-03-16T08:06:56.352Z,63.01
2023-03-16T08:09:25.719Z,63.85
2023-03-16T08:11:54.142Z,63.90
2023-03-16T08:14:23.265Z,64.11
2023-03-16T08:17:03.338Z,64.12
2023-03-16T08:19:32.021Z,64.13
2023-03-16T08:22:03.116Z,64.50
2023-03-16T08:24:32.928Z,64.54
2023-03-16T08:27:01.027Z,64.36
2023-03-16T08:29:29.562Z,64.53
2023-03-16T08:31:57.343Z,64.75
2023-03-16T08:34:28.300Z,64.70
2023-03-16T08:36:56.220Z,64.70
2023-03-16T08:39:24.621Z,64.10
2023-03-16T08:41:53.600Z,64.25
2023-03-16T08:44:26.873Z,64.35
2023-03-16T08:46:55.249Z,64.22
2023-03-16T08:49:23.654Z,63.95
2023-03-16T08:51:53.757Z,64.00
2023-03-16T08:54:22.370Z,64.21
2023-03-16T08:56:51.398Z,64.42
2023-03-16T08:59:29.779Z,64.42
2023-03-16T09:01:53.139Z,64.15
2023-03-16T09:04:21.564Z,64.01
2023-03-16T09:07:05.725Z,64.43
2023-03-16T09:09:20.907Z,65.14
2023-03-16T09:11:49.523Z,65.68
2023-03-16T09:14:18.499Z,66.01
2023-03-16T09:16:46.389Z,66.81
2023-03-16T09:19:14.313Z,67.11
2023-03-16T09:21:42.083Z,68.04
2023-03-16T09:24:10.218Z,68.23
2023-03-16T09:26:39.537Z,68.52
2023-03-16T09:29:07.595Z,69.12
2023-03-16T09:31:35.766Z,69.32
2023-03-16T09:34:04.370Z,69.98
2023-03-16T09:36:33.232Z,70.12
2023-03-16T09:39:02.802Z,70.11
2023-03-16T09:41:50.445Z,69.76
2023-03-16T09:44:42.172Z,69.72
2023-03-16T09:47:12.019Z,69.34
2023-03-16T09:49:48.949Z,69.31
2023-03-16T09:52:40.166Z,69.34
2023-03-16T09:55:33.154Z,69.04
2023-03-16T09:58:17.246Z,68.55
2023-03-16T10:01:03.470Z,68.91
2023-03-16T10:04:12.803Z,68.61
2023-03-16T10:06:46.311Z,68.29
2023-03-16T10:09:33.762Z,68.18
2023-03-16T10:12:04.676Z,68.56
2023-03-16T10:14:49.340Z,68.80
2023-03-16T10:17:23.952Z,68.92
2023-03-16T10:19:57.708Z,68.30
2023-03-16T10:22:33.140Z,68.52
2023-03-16T10:25:25.869Z,68.42
2023-03-16T10:27:54.001Z,68.25
2023-03-16T10:30:34.919Z,68.51
2023-03-16T10:33:26.074Z,68.83
2023-03-16T10:35:59.498Z,68.78
2023-03-16T10:39:03.902Z,68.99
2023-03-16T10:41:36.290Z,69.17
2023-03-16T10:44:16.960Z,69.51
2023-03-16T10:47:03.939Z,69.85
2023-03-16T10:49:45.282Z,70.18
2023-03-16T10:52:28.744Z,70.17
2023-03-16T10:55:00.620Z,70.25
2023-03-16T10:57:35.312Z,70.09
2023-03-16T11:00:15.152Z,69.64
2023-03-16T11:02:43.550Z,69.29
2023-03-16T11:05:30.737Z,68.89
2023-03-16T11:08:04.064Z,69.33
2023-03-16T11:10:49.364Z,69.28
2023-03-16T11:13:20.436Z,68.94
2023-03-16T11:16:19.688Z,68.96
2023-03-16T11:18:58.761Z,69.30
2023-03-16T11:22:18.482Z,68.61
2023-03-16T11:25:05.889Z,68.82
2023-03-16T11:28:10.817Z,68.95
2023-03-16T11:31:21.762Z,69.12
2023-03-16T11:33:50.008Z,68.61
2023-03-16T11:36:50.513Z,68.80
2023-03-16T11:39:32.296Z,68.88
2023-03-16T11:42:25.616Z,68.87
2023-03-16T11:45:17.230Z,68.65
2023-03-16T11:48:16.696Z,68.16
2023-03-16T11:51:09.869Z,68.50
2023-03-16T11:54:01.556Z,68.30
2023-03-16T11:56:37.910Z,68.14
2023-03-16T11:59:20.176Z,68.91
2023-03-16T12:02:14.848Z,69.58
2023-03-16T12:05:27.873Z,69.27
2023-03-16T12:08:07.431Z,69.02
2023-03-16T12:10:53.758Z,69.52
2023-03-16T12:14:14.002Z,69.94
2023-03-16T12:17:04.363Z,69.71
2023-03-16T12:19:55.594Z,69.45
2023-03-16T12:22:42.240Z,69.65
2023-03-16T12:25:20.464Z,69.76
2023-03-16T12:27:53.453Z,69.69
2023-03-16T12:30:50.650Z,70.06
2023-03-16T12:33:29.667Z,70.09
2023-03-16T12:36:18.380Z,69.87
2023-03-16T12:39:06.103Z,69.71
2023-03-16T12:42:05.371Z,69.52
2023-03-16T12:44:52.001Z,69.38
2023-03-16T12:47:35.382Z,69.45
2023-03-16T12:50:07.721Z,69.40
2023-03-16T12:52:46.425Z,69.70
2023-03-16T12:55:29.039Z,69.45
2023-03-16T12:58:06.986Z,69.18
2023-03-16T13:00:40.857Z,69.38
2023-03-16T13:03:16.725Z,69.60
2023-03-16T13:05:51.900Z,69.87
2023-03-16T13:08:21.043Z,69.38
2023-03-16T13:11:05.967Z,69.20
2023-03-16T13:13:33.950Z,69.33
2023-03-16T13:16:12.631Z,69.67
2023-03-16T13:18:44.031Z,69.41
2023-03-16T13:21:23.659Z,69.35
2023-03-16T13:23:58.941Z,69.96
2023-03-16T13:26:42.841Z,70.13
2023-03-16T13:29:30.607Z,70.18
2023-03-16T13:32:12.815Z,69.25
2023-03-16T13:34:51.384Z,69.76
2023-03-16T13:37:21.339Z,69.66
2023-03-16T13:40:00.555Z,69.93
2023-03-16T13:42:33.651Z,69.77
2023-03-16T13:45:15.421Z,69.58
2023-03-16T13:47:44.896Z,69.90
2023-03-16T13:50:15.662Z,69.25
2023-03-16T13:52:53.872Z,69.20
2023-03-16T13:55:31.930Z,68.60
2023-03-16T13:58:01.144Z,68.18
2023-03-16T14:00:36.529Z,67.80
2023-03-16T14:03:15.683Z,67.65
2023-03-16T14:05:44.738Z,67.95
2023-03-16T14:08:19.909Z,67.62
2023-03-16T14:10:48.723Z,67.93
2023-03-16T14:13:36.041Z,67.50
2023-03-16T14:16:17.142Z,67.25
2023-03-16T14:18:48.152Z,67.71
2023-03-16T14:21:29.883Z,67.46
2023-03-16T14:24:07.188Z,66.86
2023-03-16T14:26:46.971Z,66.16
2023-03-16T14:29:31.903Z,66.13
2023-03-16T14:31:59.926Z,66.59
2023-03-16T14:34:32.156Z,66.42
2023-03-16T14:37:09.534Z,65.91
2023-03-16T14:39:39.836Z,65.44
2023-03-16T14:42:30.789Z,65.15
2023-03-16T14:45:02.292Z,65.02
2023-03-16T14:47:33.480Z,64.73
2023-03-16T14:50:06.627Z,64.34
2023-03-16T14:52:35.031Z,63.51
2023-03-16T14:55:14.205Z,63.57
2023-03-16T14:57:44.729Z,63.65
2023-03-16T15:00:16.235Z,64.14
2023-03-16T15:03:07.102Z,64.45
2023-03-16T15:05:38.906Z,64.58
2023-03-16T15:08:26.740Z,64.81
2023-03-16T15:10:58.455Z,65.02
2023-03-16T15:13:46.026Z,65.38
2023-03-16T15:16:16.430Z,65.61
2023-03-16T15:18:44.139Z,65.64
2023-03-16T15:21:22.196Z,65.70
2023-03-16T15:23:50.257Z,66.00
2023-03-16T15:26:25.041Z,66.05
2023-03-16T15:28:52.135Z,66.25
2023-03-16T15:31:20.362Z,66.59
2023-03-16T15:33:48.592Z,66.81
2023-03-16T15:36:20.419Z,66.88
2023-03-16T15:38:51.716Z,66.86
2023-03-16T15:41:19.993Z,66.91
2023-03-16T15:43:47.605Z,67.22
2023-03-16T15:46:16.038Z,67.24
2023-03-16T15:48:43.841Z,67.04
2023-03-16T15:51:20.140Z,67.06
2023-03-16T15:53:58.988Z,67.23
2023-03-16T15:56:33.559Z,67.23
2023-03-16T15:59:05.750Z,67.12
2023-03-16T16:01:47.263Z,67.06
2023-03-16T16:04:22.994Z,67.02
2023-03-16T16:06:56.360Z,66.79
2023-03-16T16:09:25.069Z,66.92
2023-03-16T16:11:53.076Z,66.71
2023-03-16T16:14:24.401Z,66.83
2023-03-16T16:16:53.774Z,66.88
2023-03-16T16:19:21.750Z,66.93
2023-03-16T16:21:52.487Z,66.88
2023-03-16T16:24:20.196Z,66.98
2023-03-16T16:26:55.314Z,66.99
2023-03-16T16:29:25.170Z,66.94
2023-03-16T16:31:53.203Z,67.02
2023-03-16T16:34:23.992Z,67.15
2023-03-16T16:36:52.091Z,67.19
2023-03-16T16:39:20.498Z,67.24
2023-03-16T16:41:51.091Z,67.23
2023-03-16T16:44:26.704Z,67.26
2023-03-16T16:46:55.034Z,67.26
2023-03-16T16:49:30.492Z,67.25
2023-03-16T16:51:58.606Z,67.25
2023-03-16T16:54:30.494Z,67.30
2023-03-16T16:57:00.578Z,67.36
2023-03-16T16:59:36.350Z,67.32
2023-03-16T17:02:31.154Z,67.32
2023-03-16T17:04:59.361Z,67.35
2023-03-16T17:07:27.384Z,67.52
2023-03-16T17:09:55.816Z,67.59
2023-03-16T17:12:24.552Z,67.60
2023-03-16T17:14:52.191Z,67.68
2023-03-16T17:17:21.841Z,67.67
2023-03-16T17:19:49.736Z,67.62
2023-03-16T17:22:27.721Z,67.53
2023-03-16T17:24:55.719Z,67.55
2023-03-16T17:27:32.571Z,67.89
2023-03-16T17:30:00.286Z,68.02
2023-03-16T17:32:28.239Z,68.78
2023-03-16T17:34:56.227Z,69.05
2023-03-16T17:37:24.381Z,69.32
2023-03-16T17:39:57.301Z,69.40
2023-03-16T17:42:25.951Z,69.87
2023-03-16T17:44:53.905Z,70.29
2023-03-16T17:47:25.863Z,70.36
2023-03-16T17:49:54.142Z,70.39
2023-03-16T17:52:25.550Z,70.50
2023-03-16T17:54:54.336Z,70.61
2023-03-16T17:57:29.346Z,70.67
2023-03-16T17:59:57.996Z,70.79
2023-03-16T18:02:40.500Z,70.89
2023-03-16T18:05:21.653Z,71.02
2023-03-16T18:07:51.232Z,71.11
2023-03-16T18:10:24.318Z,71.11
2023-03-16T18:13:03.312Z,71.24
2023-03-16T18:15:35.992Z,71.21
2023-03-16T18:18:09.809Z,71.21
2023-03-16T18:20:37.702Z,71.21
2023-03-16T18:23:25.584Z,71.16
2023-03-16T18:26:02.594Z,71.18
2023-03-16T18:28:31.396Z,71.09
2023-03-16T18:31:01.003Z,71.04
2023-03-16T18:33:36.173Z,70.81
2023-03-16T18:36:08.997Z,70.78
2023-03-16T18:38:40.887Z,70.73
2023-03-16T18:41:27.011Z,70.41
2023-03-16T18:43:58.420Z,69.75
2023-03-16T18:46:33.967Z,68.43
2023-03-16T18:49:20.106Z,66.45
2023-03-16T18:51:52.916Z,66.43
2023-03-16T18:54:28.297Z,64.76
2023-03-16T18:56:57.544Z,64.50
2023-03-16T18:59:27.109Z,62.47
2023-03-16T19:01:55.099Z,62.52
2023-03-16T19:04:29.750Z,61.42
2023-03-16T19:06:58.946Z,61.29
2023-03-16T19:09:30.509Z,60.73
2023-03-16T19:11:59.159Z,60.72
2023-03-16T19:14:34.445Z,59.29
2023-03-16T19:17:02.221Z,59.60
2023-03-16T19:19:30.199Z,59.67
2023-03-16T19:22:07.597Z,59.31
2023-03-16T19:24:52.595Z,58.69
2023-03-16T19:27:31.833Z,58.72
2023-03-16T19:29:59.753Z,57.62
2023-03-16T19:32:27.621Z,57.90
2023-03-16T19:34:55.335Z,57.55
2023-03-16T19:37:24.657Z,57.92
2023-03-16T19:39:52.286Z,58.11
2023-03-16T19:42:36.629Z,57.77
2023-03-16T19:45:06.463Z,57.86
2023-03-16T19:47:35.673Z,57.93
2023-03-16T19:50:15.376Z,58.10
2023-03-16T19:52:43.567Z,58.10
2023-03-16T19:55:22.581Z,58.09
2023-03-16T19:57:55.747Z,58.04
2023-03-16T20:00:26.555Z,58.07
2023-03-16T20:02:56.657Z,58.09
2023-03-16T20:05:29.308Z,57.78
2023-03-16T20:08:00.991Z,57.95
2023-03-16T20:10:32.241Z,57.55
2023-03-16T20:13:01.562Z,57.55
2023-03-16T20:15:32.815Z,57.25
2023-03-16T20:18:00.711Z,57.51
2023-03-16T20:20:33.603Z,57.26
2023-03-16T20:23:01.587Z,56.66
2023-03-16T20:25:32.017Z,56.46
2023-03-16T20:28:03.327Z,56.47
2023-03-16T20:30:31.442Z,56.26
2023-03-16T20:32:59.264Z,56.56
2023-03-16T20:35:32.084Z,56.16
2023-03-16T20:38:00.465Z,56.19
2023-03-16T20:40:28.473Z,55.74
2023-03-16T20:42:56.223Z,56.06
2023-03-16T20:45:28.067Z,55.56
2023-03-16T20:47:56.381Z,55.73
2023-03-16T20:50:28.824Z,55.70
2023-03-16T20:52:57.408Z,55.94
2023-03-16T20:55:28.564Z,55.79
2023-03-16T20:57:57.192Z,55.68
2023-03-16T21:00:35.892Z,55.08
2023-03-16T21:03:16.312Z,55.03
2023-03-16T21:05:45.670Z,54.67
2023-03-16T21:08:15.218Z,54.78
2023-03-16T21:10:46.461Z,54.67
2023-03-16T21:13:30.880Z,55.01
2023-03-16T21:16:01.869Z,54.98
2023-03-16T21:18:30.873Z,54.67
2023-03-16T21:20:58.464Z,54.13
2023-03-16T21:23:27.135Z,53.13
2023-03-16T21:25:58.590Z,53.70
2023-03-16T21:28:28.521Z,53.29
2023-03-16T21:30:58.362Z,52.98
2023-03-16T21:33:39.665Z,53.27
2023-03-16T21:36:15.586Z,53.50
2023-03-16T21:38:43.824Z,53.48
2023-03-16T21:41:12.200Z,53.37
2023-03-16T21:43:42.388Z,53.48
2023-03-16T21:46:20.227Z,53.42
2023-03-16T21:48:54.252Z,53.50
2023-03-16T21:51:28.084Z,53.87
2023-03-16T21:53:55.845Z,53.90
2023-03-16T21:56:25.598Z,54.17
2023-03-16T21:58:55.631Z,54.39
2023-03-16T22:01:32.464Z,54.68
2023-03-16T22:04:08.427Z,54.77
2023-03-16T22:06:36.362Z,54.74
2023-03-16T22:09:04.275Z,54.70
2023-03-16T22:11:32.072Z,54.58
2023-03-16T22:14:00.956Z,54.46
2023-03-16T22:16:32.992Z,54.44
2023-03-16T22:19:00.790Z,54.32
2023-03-16T22:21:38.305Z,54.34
2023-03-16T22:24:13.451Z,54.37
2023-03-16T22:26:41.257Z,54.43
2023-03-16T22:29:29.629Z,54.55
2023-03-16T22:32:03.536Z,54.47
2023-03-16T22:34:42.128Z,54.44
2023-03-16T22:37:13.886Z,54.31
2023-03-16T22:39:41.698Z,54.71
2023-03-16T22:42:32.815Z,54.92
2023-03-16T22:45:00.744Z,55.02
2023-03-16T22:47:33.568Z,55.21
2023-03-16T22:50:01.324Z,55.30
2023-03-16T22:52:32.952Z,55.36
2023-03-16T22:55:03.977Z,55.63
2023-03-16T22:57:32.165Z,55.69
2023-03-16T23:00:03.467Z,55.96
2023-03-16T23:02:31.689Z,56.24
2023-03-16T23:04:59.384Z,56.32
2023-03-16T23:07:27.026Z,56.52
2023-03-16T23:09:55.214Z,56.58
2023-03-16T23:12:22.956Z,56.67
2023-03-16T23:14:50.548Z,56.71
2023-03-16T23:17:21.538Z,56.79
2023-03-16T23:19:49.453Z,56.89
2023-03-16T23:22:17.139Z,56.82
2023-03-16T23:24:45.247Z,56.80
2023-03-16T23:27:17.942Z,57.02
2023-03-16T23:29:46.189Z,57.20
2023-03-16T23:32:16.574Z,57.26
2023-03-16T23:34:44.747Z,57.34
2023-03-16T23:37:12.395Z,57.45
2023-03-16T23:39:40.238Z,57.57
2023-03-16T23:42:08.702Z,57.53
2023-03-16T23:44:36.817Z,57.54
2023-03-16T23:47:04.913Z,57.62
2023-03-16T23:49:36.467Z,57.78
2023-03-16T23:52:05.129Z,57.75
2023-03-16T23:54:32.841Z,57.75
2023-03-16T23:57:00.480Z,57.79
2023-03-16T23:59:28.230Z,57.77
